Time;durP1;ratioP1;P1;durP2;ratioP2;P2;SDS_P1;SDS_P2;PMS_P1;PMS_P2;Temp;Humidity;BMP_temperature;BMP_pressure;BME280_temperature;BME280_humidity;BME280_pressure;Samples;Min_cycle;Max_cycle;Signal;HPM_P1;HPM_P2
2022/10/10 00:00:24;;;;;;;25.52;10.25;;;;;;;31.35;27.82;101019.75;5043072;28;20127;-77
2022/10/10 00:02:53;;;;;;;12.75;8.82;;;;;;;31.33;27.75;101021.66;5031356;28;20521;-76
2022/10/10 00:05:21;;;;;;;13.90;8.55;;;;;;;31.28;27.58;101014.72;5046103;28;20102;-73
2022/10/10 00:07:50;;;;;;;12.00;8.43;;;;;;;31.23;25.20;101013.25;5038570;28;20076;-73
2022/10/10 00:10:18;;;;;;;13.25;9.18;;;;;;;31.16;25.82;101003.84;5048219;28;20049;-76
2022/10/10 00:12:47;;;;;;;11.82;8.57;;;;;;;31.06;24.76;101020.38;5042039;28;20598;-74
2022/10/10 00:15:16;;;;;;;19.17;8.82;;;;;;;30.98;26.72;101011.88;5040557;28;20049;-77
2022/10/10 00:17:46;;;;;;;20.83;8.63;;;;;;;30.90;25.36;101011.38;5045762;28;20410;-78
2022/10/10 00:20:17;;;;;;;19.88;9.23;;;;;;;30.75;26.55;101004.16;5041527;28;20470;-77
2022/10/10 00:22:46;;;;;;;13.73;9.35;;;;;;;30.75;26.50;101001.47;5044630;28;20506;-77
2022/10/10 00:25:15;;;;;;;15.40;8.98;;;;;;;30.67;26.82;101010.75;5033428;28;20103;-78
2022/10/10 00:27:44;;;;;;;18.58;8.90;;;;;;;30.59;26.89;101007.59;5042374;28;20079;-78
2022/10/10 00:30:13;;;;;;;11.20;8.40;;;;;;;30.49;26.46;100998.31;5042633;28;20251;-80
2022/10/10 00:32:51;;;;;;;11.52;8.20;;;;;;;30.38;27.20;101000.66;5037821;28;20057;-77
2022/10/10 00:35:20;;;;;;;11.48;8.52;;;;;;;30.29;26.76;101001.13;5040852;28;20455;-78
2022/10/10 00:37:55;;;;;;;11.73;9.32;;;;;;;30.18;27.24;101004.25;5040525;28;20137;-78
2022/10/10 00:40:25;;;;;;;11.93;9.20;;;;;;;30.07;28.02;100999.44;5044964;28;20095;-77
2022/10/10 00:42:53;;;;;;;11.68;8.63;;;;;;;29.99;28.19;101005.16;5034367;28;20078;-77
2022/10/10 00:45:38;;;;;;;14.88;9.45;;;;;;;29.90;28.34;100999.41;5038413;28;20052;-79
2022/10/10 00:48:12;;;;;;;11.70;8.50;;;;;;;29.78;29.27;101001.72;5039520;28;20157;-79
2022/10/10 00:50:45;;;;;;;10.05;8.40;;;;;;;29.69;29.45;100994.13;5034728;28;20052;-77
2022/10/10 00:53:16;;;;;;;13.50;8.25;;;;;;;29.60;29.46;100991.88;5039596;28;20059;-74
2022/10/10 00:55:45;;;;;;;11.35;8.82;;;;;;;29.50;29.61;100986.06;5034100;28;20118;-75
2022/10/10 00:58:15;;;;;;;11.82;9.10;;;;;;;29.38;30.15;100989.31;5033775;28;21254;-79
2022/10/10 01:00:43;;;;;;;12.13;8.63;;;;;;;29.26;30.54;100992.53;5035150;28;20044;-76
2022/10/10 01:03:14;;;;;;;9.80;7.82;;;;;;;29.11;30.47;100988.75;5044758;28;20064;-76
2022/10/10 01:05:44;;;;;;;13.10;9.35;;;;;;;28.98;30.79;100983.06;5034302;28;20049;-76
2022/10/10 01:08:13;;;;;;;13.55;8.80;;;;;;;28.84;31.68;100981.00;5040301;28;20143;-76
2022/10/10 01:10:55;;;;;;;13.13;8.88;;;;;;;28.70;31.76;100984.25;5044439;28;20044;-76
2022/10/10 01:13:29;;;;;;;;;;;;;;;28.59;31.39;100982.03;5035321;28;20079;-76
2022/10/10 01:16:02;;;;;;;13.32;9.38;;;;;;;28.47;30.85;100987.00;5044533;28;19925;-76
2022/10/10 01:18:42;;;;;;;12.27;8.50;;;;;;;28.32;30.49;100989.34;5044166;28;21249;-77
2022/10/10 01:21:19;;;;;;;11.35;8.60;;;;;;;28.18;32.19;100992.56;5044768;28;20503;-76
2022/10/10 01:24:31;;;;;;;14.88;9.75;;;;;;;27.98;31.88;100989.81;5046566;28;20122;-76
2022/10/10 01:27:27;;;;;;;11.63;9.30;;;;;;;27.77;32.23;100981.72;5029860;28;20270;-76
2022/10/10 01:30:02;;;;;;;12.65;8.80;;;;;;;27.61;33.55;100983.25;5045342;28;20047;-76
2022/10/10 01:32:37;;;;;;;12.75;9.23;;;;;;;27.44;33.63;100983.00;5042920;28;20046;-77
2022/10/10 01:35:26;;;;;;;11.65;8.55;;;;;;;27.19;33.79;100983.88;5044780;28;20049;-76
2022/10/10 01:38:03;;;;;;;13.38;9.55;;;;;;;26.99;35.29;100986.38;5036466;28;20053;-76
2022/10/10 01:40:37;;;;;;;16.10;9.82;;;;;;;26.74;36.64;100992.53;5043547;28;20041;-74
2022/10/10 01:43:08;;;;;;;14.57;9.57;;;;;;;26.43;36.79;100988.19;5039680;28;20045;-75
2022/10/10 01:45:43;;;;;;;14.38;9.30;;;;;;;26.16;38.92;101000.59;5033606;28;20103;-75
2022/10/10 01:48:12;;;;;;;15.73;10.30;;;;;;;25.94;36.84;100995.06;5039911;28;20048;-73
2022/10/10 01:50:57;;;;;;;13.35;9.88;;;;;;;25.77;36.78;100998.22;5039070;28;20064;-73
2022/10/10 01:53:39;;;;;;;12.27;9.35;;;;;;;25.62;38.86;100998.66;5039222;28;20379;-73
2022/10/10 01:56:14;;;;;;;15.95;9.95;;;;;;;25.53;39.08;101002.44;5033966;28;20521;-73
2022/10/10 01:59:00;;;;;;;12.35;9.55;;;;;;;25.45;39.13;101000.00;5043986;28;20091;-74
2022/10/10 02:01:35;;;;;;;14.05;9.85;;;;;;;25.33;39.59;101002.13;5044613;28;20426;-74
2022/10/10 02:04:11;;;;;;;12.73;9.30;;;;;;;25.22;39.41;101000.66;5037472;28;20108;-74
2022/10/10 02:06:45;;;;;;;16.88;9.60;;;;;;;25.05;39.82;100986.97;5032416;28;20724;-75
2022/10/10 02:09:18;;;;;;;14.93;10.15;;;;;;;25.01;41.21;101001.19;5037463;28;20049;-75
2022/10/10 02:11:48;;;;;;;15.38;10.27;;;;;;;24.89;41.89;101002.38;5040129;28;20522;-76
2022/10/10 02:14:19;;;;;;;12.05;9.38;;;;;;;24.75;40.92;101010.66;5042761;28;20045;-76
2022/10/10 02:16:53;;;;;;;13.82;10.02;;;;;;;24.62;40.65;101006.59;5036591;28;20063;-76
2022/10/10 02:19:24;;;;;;;16.00;10.35;;;;;;;24.42;40.17;101005.28;5041636;28;20490;-75
2022/10/10 02:21:54;;;;;;;13.27;9.80;;;;;;;24.29;39.84;101022.34;5044145;28;20526;-77
2022/10/10 02:24:25;;;;;;;14.13;9.23;;;;;;;24.17;40.53;101020.84;5043697;28;20168;-77
2022/10/10 02:26:57;;;;;;;15.47;9.90;;;;;;;24.08;40.07;101021.06;5041072;28;20539;-80
2022/10/10 02:29:29;;;;;;;16.23;10.40;;;;;;;23.93;40.95;101018.75;5038695;28;20053;-78
2022/10/10 02:32:06;;;;;;;17.73;10.35;;;;;;;23.67;42.87;101025.41;5042140;28;20048;-79
2022/10/10 02:34:38;;;;;;;13.90;8.95;;;;;;;23.51;44.42;101029.28;5045478;28;20054;-79
2022/10/10 02:37:11;;;;;;;14.98;9.80;;;;;;;23.40;43.77;101018.91;5041648;27;20049;-80
2022/10/10 02:39:44;;;;;;;14.88;9.43;;;;;;;23.31;44.36;101019.09;5026708;28;21237;-83
2022/10/10 02:42:15;;;;;;;14.25;9.65;;;;;;;23.22;42.47;101022.75;5025311;28;20742;-82
2022/10/10 02:44:45;;;;;;;16.37;9.90;;;;;;;23.11;43.58;101032.63;5027392;28;20061;-80
2022/10/10 02:47:16;;;;;;;17.17;10.75;;;;;;;22.98;43.48;101026.69;5026911;28;20057;-78
2022/10/10 02:49:45;;;;;;;16.80;10.27;;;;;;;22.94;44.63;101041.69;5026203;28;20045;-81
2022/10/10 02:52:15;;;;;;;18.63;10.70;;;;;;;22.86;43.99;101040.06;5025105;28;20500;-84
2022/10/10 02:54:44;;;;;;;16.10;11.00;;;;;;;22.75;44.10;101042.91;5025146;28;20053;-80
2022/10/10 02:57:13;;;;;;;16.23;10.23;;;;;;;22.65;45.30;101049.22;5027964;28;20053;-74
2022/10/10 02:59:41;;;;;;;15.95;11.07;;;;;;;22.54;45.25;101046.75;5023356;28;20056;-75
2022/10/10 03:02:10;;;;;;;16.90;11.15;;;;;;;22.48;44.96;101057.41;5022232;28;20124;-73
2022/10/10 03:04:40;;;;;;;19.27;11.65;;;;;;;22.40;44.99;101054.00;5026859;28;20142;-69
2022/10/10 03:07:09;;;;;;;14.75;11.00;;;;;;;22.25;45.98;101052.47;5024778;28;20049;-71
2022/10/10 03:09:38;;;;;;;13.68;9.90;;;;;;;22.06;48.76;101057.06;5034292;28;20053;-69
2022/10/10 03:12:06;;;;;;;16.98;10.40;;;;;;;21.92;49.11;101057.25;5028289;28;20049;-69
2022/10/10 03:14:35;;;;;;;15.73;10.57;;;;;;;21.85;47.82;101053.84;5025367;28;20072;-69
2022/10/10 03:17:04;;;;;;;18.50;10.60;;;;;;;21.80;47.76;101052.13;5021494;28;20530;-69
2022/10/10 03:19:32;;;;;;;19.40;11.68;;;;;;;21.77;47.37;101058.31;5021867;28;20046;-71
2022/10/10 03:22:02;;;;;;;16.50;11.13;;;;;;;21.71;46.97;101063.66;5024336;28;20111;-74
2022/10/10 03:24:31;;;;;;;16.73;10.45;;;;;;;21.65;46.44;101059.34;5022520;28;20053;-72
2022/10/10 03:27:02;;;;;;;15.50;10.93;;;;;;;21.60;46.99;101061.16;5031224;28;20056;-74
2022/10/10 03:29:30;;;;;;;16.70;11.15;;;;;;;21.53;47.33;101060.34;5027932;28;20049;-80
2022/10/10 03:31:59;;;;;;;17.17;11.55;;;;;;;21.49;47.61;101058.63;5019122;28;20056;-75
2022/10/10 03:34:27;;;;;;;18.77;11.35;;;;;;;21.44;47.61;101065.72;5020773;28;20414;-75
2022/10/10 03:36:56;;;;;;;17.20;11.75;;;;;;;21.39;46.69;101067.47;5032598;28;20063;-73
2022/10/10 03:39:26;;;;;;;20.95;12.05;;;;;;;21.35;46.79;101063.16;5041372;28;20588;-75
2022/10/10 03:41:55;;;;;;;16.58;10.63;;;;;;;21.29;46.49;101071.94;5041610;28;20059;-75
2022/10/10 03:44:23;;;;;;;20.02;12.10;;;;;;;21.26;46.44;101071.13;5045623;28;20060;-75
2022/10/10 03:46:52;;;;;;;17.20;11.63;;;;;;;21.15;47.74;101075.63;5044725;28;20114;-76
2022/10/10 03:49:21;;;;;;;15.85;10.38;;;;;;;21.06;48.23;101073.94;5046163;28;20053;-78
2022/10/10 03:51:49;;;;;;;17.73;10.63;;;;;;;21.03;48.64;101074.84;5044550;28;20072;-75
2022/10/10 03:54:18;;;;;;;20.67;10.82;;;;;;;20.99;48.65;101073.13;5044550;28;20052;-76
2022/10/10 03:56:48;;;;;;;18.27;10.85;;;;;;;20.96;48.68;101070.50;5046218;28;20392;-74
2022/10/10 03:59:17;;;;;;;14.90;10.75;;;;;;;20.90;50.84;101065.28;5046180;28;20052;-75
2022/10/10 04:01:45;;;;;;;15.90;10.50;;;;;;;20.85;50.95;101075.00;5045097;28;20474;-74
2022/10/10 04:04:14;;;;;;;16.52;10.63;;;;;;;20.83;51.22;101076.75;5040492;28;20049;-77
2022/10/10 04:06:42;;;;;;;16.33;10.43;;;;;;;20.79;50.52;101082.91;5037768;28;20049;-77
2022/10/10 04:09:11;;;;;;;15.25;10.30;;;;;;;20.68;50.44;101070.72;5035749;28;20564;-76
2022/10/10 04:11:39;;;;;;;16.30;11.20;;;;;;;20.70;50.18;101086.47;5046215;28;20053;-74
2022/10/10 04:14:10;;;;;;;16.13;10.70;;;;;;;20.63;49.64;101083.00;5045731;28;20502;-77
2022/10/10 04:16:38;;;;;;;18.52;11.20;;;;;;;20.55;50.93;101087.44;5041950;28;20071;-74
2022/10/10 04:19:07;;;;;;;17.63;11.25;;;;;;;20.47;49.74;101084.84;5038504;28;20041;-75
2022/10/10 04:21:36;;;;;;;17.42;10.82;;;;;;;20.41;50.19;101086.63;5038331;28;20050;-78
2022/10/10 04:24:04;;;;;;;19.48;11.27;;;;;;;20.33;49.85;101086.69;5040868;28;20045;-74
2022/10/10 04:26:33;;;;;;;19.33;10.95;;;;;;;20.23;49.20;101088.50;5037723;28;20045;-75
2022/10/10 04:29:02;;;;;;;17.70;11.27;;;;;;;20.14;49.80;101079.78;5039038;28;20056;-74
2022/10/10 04:31:32;;;;;;;16.00;10.77;;;;;;;20.02;50.19;101088.56;5036598;28;20057;-73
2022/10/10 04:34:01;;;;;;;19.60;10.18;;;;;;;19.96;50.01;101086.84;5042363;28;20052;-76
2022/10/10 04:36:29;;;;;;;16.98;10.25;;;;;;;19.91;49.91;101093.03;5036841;28;20065;-75
2022/10/10 04:38:58;;;;;;;15.45;9.95;;;;;;;19.85;49.79;101088.66;5043529;28;20052;-76
2022/10/10 04:41:26;;;;;;;15.95;9.52;;;;;;;19.79;50.76;101089.56;5039561;28;20059;-74
2022/10/10 04:43:55;;;;;;;14.85;8.85;;;;;;;19.73;51.05;101092.19;5045168;28;20200;-75
2022/10/10 04:46:23;;;;;;;18.08;11.23;;;;;;;19.65;51.49;101094.81;5044768;28;20049;-74
2022/10/10 04:48:54;;;;;;;17.38;11.13;;;;;;;19.57;51.49;101090.44;5058509;28;20052;-74
2022/10/10 04:51:22;;;;;;;14.82;9.82;;;;;;;19.45;51.96;101086.97;5059976;28;20052;-74
2022/10/10 04:53:51;;;;;;;13.35;8.75;;;;;;;19.39;52.44;101093.97;5064608;28;20710;-74
2022/10/10 04:56:20;;;;;;;19.20;10.45;;;;;;;19.33;51.93;101093.97;5055462;28;20041;-75
2022/10/10 04:58:48;;;;;;;18.17;9.13;;;;;;;19.28;52.45;101096.59;5057878;28;20044;-74
2022/10/10 05:01:17;;;;;;;17.35;11.13;;;;;;;19.23;52.20;101098.38;5060790;28;20056;-74
2022/10/10 05:03:45;;;;;;;18.50;9.52;;;;;;;19.16;53.18;101100.13;5054391;28;20052;-76
2022/10/10 05:06:15;;;;;;;19.45;10.25;;;;;;;19.11;53.48;101103.63;5067069;28;20113;-75
2022/10/10 05:08:44;;;;;;;16.63;10.10;;;;;;;19.05;53.18;101099.25;5067053;28;20045;-75
2022/10/10 05:11:12;;;;;;;14.70;10.02;;;;;;;19.01;52.93;101106.25;5052046;28;20060;-74
2022/10/10 05:13:41;;;;;;;17.95;10.55;;;;;;;18.95;53.71;101102.75;5063464;28;20064;-77
2022/10/10 05:16:10;;;;;;;15.52;10.23;;;;;;;18.91;54.73;101107.09;5061566;28;20045;-77
2022/10/10 05:18:38;;;;;;;15.82;9.45;;;;;;;18.85;54.13;101104.47;5056403;28;20502;-77
2022/10/10 05:21:07;;;;;;;17.10;8.82;;;;;;;18.80;54.34;101099.22;5054679;28;20037;-78
2022/10/10 05:23:37;;;;;;;17.70;11.10;;;;;;;18.76;55.95;101107.03;5064407;28;20107;-78
2022/10/10 05:26:06;;;;;;;18.83;10.05;;;;;;;18.71;55.18;101108.78;5062493;28;20518;-76
2022/10/10 05:28:35;;;;;;;16.42;8.95;;;;;;;18.66;55.41;101106.16;5057064;28;20052;-78
2022/10/10 05:31:04;;;;;;;16.50;11.00;;;;;;;18.59;56.19;101105.28;5054153;28;20059;-76
2022/10/10 05:33:32;;;;;;;21.85;11.70;;;;;;;18.55;56.72;101108.75;5059125;28;20052;-78
2022/10/10 05:36:06;;;;;;;14.88;9.25;;;;;;;18.50;56.86;101113.09;5054496;28;20056;-77
2022/10/10 05:38:37;;;;;;;18.33;11.52;;;;;;;18.46;56.70;101113.09;5045099;28;20052;-77
2022/10/10 05:41:06;;;;;;;19.30;11.57;;;;;;;18.43;57.65;101119.22;5033368;28;20956;-73
2022/10/10 05:43:35;;;;;;;21.55;11.07;;;;;;;18.39;57.36;101114.81;5039450;28;20049;-73
2022/10/10 05:46:04;;;;;;;17.50;10.30;;;;;;;18.33;57.53;101118.31;5039927;28;20128;-73
2022/10/10 05:48:32;;;;;;;16.25;10.80;;;;;;;18.30;58.28;101117.41;5038519;28;20490;-73
2022/10/10 05:51:01;;;;;;;19.90;12.15;;;;;;;18.27;58.06;101125.28;5046066;28;20049;-73
2022/10/10 05:53:30;;;;;;;22.60;12.77;;;;;;;18.24;58.05;101112.19;5041799;28;20045;-73
2022/10/10 05:56:02;;;;;;;16.90;9.85;;;;;;;18.21;58.35;101113.03;5043700;28;20137;-72
2022/10/10 05:58:31;;;;;;;17.97;9.77;;;;;;;18.15;58.74;101116.50;5045296;28;20056;-72
2022/10/10 06:01:05;;;;;;;19.63;11.88;;;;;;;18.10;57.99;101120.84;5046905;28;20088;-73
2022/10/10 06:03:34;;;;;;;17.85;11.98;;;;;;;18.08;58.65;101121.72;5048367;28;20506;-72
2022/10/10 06:06:02;;;;;;;19.10;10.18;;;;;;;18.05;57.96;101122.56;5037975;28;20506;-73
2022/10/10 06:08:31;;;;;;;20.30;10.27;;;;;;;18.02;58.18;101114.69;5040260;28;20059;-73
2022/10/10 06:11:06;;;;;;;16.88;11.32;;;;;;;18.01;58.50;101120.81;5049649;28;20644;-72
2022/10/10 06:13:35;;;;;;;20.02;11.00;;;;;;;17.98;58.69;101118.16;5037645;28;20050;-72
2022/10/10 06:16:04;;;;;;;17.73;9.93;;;;;;;17.99;57.86;101118.16;5045303;28;20508;-73
2022/10/10 06:18:32;;;;;;;20.83;10.82;;;;;;;18.02;58.05;101121.66;5049213;28;20052;-72
2022/10/10 06:21:04;;;;;;;15.63;10.18;;;;;;;17.99;59.00;101117.31;5038618;28;20045;-71
2022/10/10 06:23:32;;;;;;;19.20;11.98;;;;;;;17.97;59.94;101122.53;5038060;28;20048;-73
2022/10/10 06:26:03;;;;;;;24.83;12.77;;;;;;;17.94;60.22;101124.25;5049083;28;20052;-73
2022/10/10 06:28:31;;;;;;;18.83;10.68;;;;;;;17.89;60.33;101121.63;5040583;28;20049;-73
2022/10/10 06:31:01;;;;;;;19.13;10.45;;;;;;;17.85;60.08;101117.22;5049051;28;20048;-72
2022/10/10 06:33:30;;;;;;;21.30;12.13;;;;;;;17.79;60.87;101125.88;5038588;28;20100;-73
2022/10/10 06:35:59;;;;;;;20.35;10.63;;;;;;;17.72;60.69;101113.63;5038102;28;20052;-72
2022/10/10 06:38:28;;;;;;;19.42;11.02;;;;;;;17.67;61.03;101114.47;5046469;27;20045;-72
2022/10/10 06:40:56;;;;;;;19.75;9.93;;;;;;;17.58;62.13;101115.28;5041873;28;20064;-72
2022/10/10 06:43:26;;;;;;;18.75;10.63;;;;;;;17.48;62.52;101118.72;5039854;28;20041;-73
2022/10/10 06:45:55;;;;;;;21.02;11.35;;;;;;;17.44;63.34;101115.19;5041307;28;20550;-73
2022/10/10 06:48:23;;;;;;;18.98;10.13;;;;;;;17.41;64.11;101117.81;5041066;28;20180;-72
2022/10/10 06:50:59;;;;;;;21.52;10.93;;;;;;;17.37;64.36;101127.34;5043841;28;20144;-73
2022/10/10 06:53:28;;;;;;;18.63;10.77;;;;;;;17.33;64.65;101130.81;5048616;28;20064;-72
2022/10/10 06:55:59;;;;;;;19.00;9.95;;;;;;;17.25;64.37;101132.50;5038603;28;20052;-73
2022/10/10 06:58:31;;;;;;;21.95;10.77;;;;;;;17.15;63.59;101125.44;5034607;28;20049;-73
2022/10/10 07:01:01;;;;;;;20.38;9.82;;;;;;;17.07;64.40;101116.66;5050076;28;20045;-72
2022/10/10 07:03:31;;;;;;;14.23;8.15;;;;;;;17.03;65.20;101135.78;5041731;28;20526;-73
2022/10/10 07:06:01;;;;;;;20.75;10.80;;;;;;;16.95;64.56;101127.88;5043719;28;20120;-74
2022/10/10 07:08:30;;;;;;;19.42;9.45;;;;;;;16.85;65.65;101129.50;5048557;28;20048;-72
2022/10/10 07:10:59;;;;;;;17.17;9.82;;;;;;;16.83;65.09;101123.41;5044593;28;20419;-73
2022/10/10 07:13:29;;;;;;;14.93;8.45;;;;;;;16.81;65.60;101126.84;5039838;28;20049;-73
2022/10/10 07:15:58;;;;;;;15.10;8.82;;;;;;;16.75;65.43;101130.28;5050358;28;20056;-73
2022/10/10 07:18:26;;;;;;;14.30;8.40;;;;;;;16.71;66.40;101128.47;5046647;28;20053;-72
2022/10/10 07:20:57;;;;;;;18.33;9.45;;;;;;;16.67;67.61;101127.56;5038702;28;20045;-72
2022/10/10 07:23:26;;;;;;;17.35;9.10;;;;;;;16.65;68.05;101128.41;5046148;28;20617;-73
2022/10/10 07:26:00;;;;;;;15.93;8.95;;;;;;;16.61;68.28;101135.34;5042166;28;20057;-72
2022/10/10 07:28:31;;;;;;;19.38;9.90;;;;;;;16.59;68.23;101133.59;5040037;28;20120;-73
2022/10/10 07:31:01;;;;;;;15.35;8.60;;;;;;;16.55;68.80;101135.28;5045147;28;20514;-73
2022/10/10 07:33:34;;;;;;;17.65;9.52;;;;;;;16.55;68.77;101133.53;5045168;28;20064;-73
2022/10/10 07:36:02;;;;;;;16.40;8.38;;;;;;;16.54;68.67;101137.00;5043898;28;20104;-72
2022/10/10 07:38:31;;;;;;;15.85;8.82;;;;;;;16.52;68.52;101137.88;5043509;28;20045;-73
2022/10/10 07:40:59;;;;;;;13.45;8.13;;;;;;;16.47;68.59;101135.19;5038528;28;20045;-72
2022/10/10 07:43:28;;;;;;;15.75;9.00;;;;;;;16.42;68.51;101141.22;5043583;28;20049;-73
2022/10/10 07:45:58;;;;;;;16.95;9.10;;;;;;;16.38;68.08;101137.72;5039271;28;20380;-72
2022/10/10 07:48:27;;;;;;;17.45;8.85;;;;;;;16.30;69.06;101142.81;5035171;28;20049;-73
2022/10/10 07:50:55;;;;;;;13.93;8.13;;;;;;;16.25;69.70;101143.63;5043941;28;20103;-72
2022/10/10 07:53:24;;;;;;;17.08;9.32;;;;;;;16.16;70.20;101148.75;5041840;28;20060;-72
2022/10/10 07:55:53;;;;;;;13.95;8.13;;;;;;;16.11;69.81;101141.72;5036770;28;20546;-72
2022/10/10 07:58:21;;;;;;;11.38;7.57;;;;;;;16.11;69.48;101146.94;5038508;28;20100;-72
2022/10/10 08:00:50;;;;;;;15.60;8.65;;;;;;;16.06;69.97;101146.00;5036934;28;20057;-73
2022/10/10 08:03:20;;;;;;;20.90;9.20;;;;;;;16.03;70.04;101145.06;5038950;28;20104;-72
2022/10/10 08:05:48;;;;;;;16.40;8.60;;;;;;;15.99;70.86;101145.88;5043977;28;20053;-73
2022/10/10 08:08:17;;;;;;;18.02;8.73;;;;;;;15.90;72.63;101155.34;5047732;28;20052;-71
2022/10/10 08:10:45;;;;;;;17.30;8.50;;;;;;;15.81;73.34;101157.84;5041613;28;20048;-72
2022/10/10 08:13:14;;;;;;;14.20;8.75;;;;;;;15.81;73.01;101156.97;5040259;28;20544;-71
2022/10/10 08:15:43;;;;;;;16.70;8.45;;;;;;;15.79;72.95;101150.84;5046430;28;20072;-72
2022/10/10 08:18:11;;;;;;;14.98;7.93;;;;;;;15.80;72.43;101160.41;5047044;28;20049;-75
2022/10/10 08:20:41;;;;;;;18.33;8.65;;;;;;;15.79;72.32;101158.69;5045969;28;20123;-72
2022/10/10 08:23:10;;;;;;;14.73;7.65;;;;;;;15.75;72.33;101151.66;5038474;28;20503;-72
2022/10/10 08:25:39;;;;;;;14.93;8.32;;;;;;;15.73;73.05;101150.75;5039291;28;20052;-72
2022/10/10 08:28:07;;;;;;;12.82;8.38;;;;;;;15.70;73.27;101156.78;5043115;28;20056;-73
2022/10/10 08:30:40;;;;;;;12.90;7.63;;;;;;;15.70;73.46;101148.94;5039096;28;20046;-73
2022/10/10 08:33:09;;;;;;;16.48;8.65;;;;;;;15.67;73.21;101149.78;5042171;28;20723;-72
2022/10/10 08:35:39;;;;;;;14.90;8.38;;;;;;;15.67;72.75;101149.78;5042933;28;20053;-72
2022/10/10 08:38:09;;;;;;;15.93;9.00;;;;;;;15.65;72.57;101150.63;5042415;28;20045;-72
2022/10/10 08:40:45;;;;;;;15.85;7.53;;;;;;;15.62;72.29;101145.34;5038432;28;20541;-72
2022/10/10 08:43:21;;;;;;;16.00;7.93;;;;;;;15.58;72.50;101143.56;5043368;28;20070;-73
2022/10/10 08:45:51;;;;;;;14.13;8.55;;;;;;;15.56;72.99;101151.34;5038830;28;20128;-72
2022/10/10 08:48:24;;;;;;;16.88;8.25;;;;;;;15.54;72.84;101152.19;5040769;28;20045;-73
2022/10/10 08:50:58;;;;;;;16.75;8.27;;;;;;;15.48;72.18;101150.34;5038867;28;20458;-72
2022/10/10 08:53:33;;;;;;;19.05;8.95;;;;;;;15.43;73.20;101159.81;5039131;28;20140;-73
2022/10/10 08:56:05;;;;;;;16.05;9.18;;;;;;;15.40;73.01;101157.19;5046892;28;20133;-73
2022/10/10 08:58:37;;;;;;;16.25;8.38;;;;;;;15.37;73.28;101159.72;5047266;28;20151;-73
2022/10/10 09:01:13;;;;;;;15.50;7.75;;;;;;;15.35;73.00;101157.09;5044313;28;20111;-73
2022/10/10 09:03:46;;;;;;;15.43;8.75;;;;;;;15.35;73.08;101164.06;5036107;28;21060;-73
2022/10/10 09:06:37;;;;;;;18.35;8.48;;;;;;;15.29;72.15;101157.00;5040866;28;20102;-72
2022/10/10 09:09:17;;;;;;;16.83;8.10;;;;;;;15.22;74.20;101166.44;5040945;28;20053;-73
2022/10/10 09:11:58;;;;;;;15.38;8.20;;;;;;;15.16;74.61;101168.06;5040685;28;20472;-72
2022/10/10 09:14:36;;;;;;;14.57;9.07;;;;;;;15.13;75.37;101166.28;5045260;28;20252;-73
2022/10/10 09:17:17;;;;;;;13.10;8.20;;;;;;;15.13;75.45;101168.00;5040888;28;20582;-73
2022/10/10 09:20:00;;;;;;;16.38;8.02;;;;;;;15.11;74.83;101167.97;5039615;28;20395;-74
2022/10/10 09:22:33;;;;;;;15.27;8.18;;;;;;;15.05;76.04;101167.91;5043806;28;20052;-74
2022/10/10 09:25:08;;;;;;;15.02;7.90;;;;;;;14.97;76.15;101169.47;5038194;28;20057;-73
2022/10/10 09:27:41;;;;;;;16.35;7.47;;;;;;;14.95;76.32;101169.44;5040933;28;20124;-73
2022/10/10 09:30:18;;;;;;;18.15;7.78;;;;;;;14.94;76.92;101169.44;5040066;28;20059;-73
2022/10/10 09:32:51;;;;;;;14.82;8.27;;;;;;;14.93;76.20;101168.53;5037920;28;20045;-73
2022/10/10 09:35:23;;;;;;;16.40;8.05;;;;;;;14.94;76.97;101164.22;5047650;28;20613;-73
2022/10/10 09:38:05;;;;;;;14.07;9.20;;;;;;;14.92;77.26;101173.72;5048626;28;20546;-73
2022/10/10 09:40:40;;;;;;;15.32;8.27;;;;;;;14.90;77.06;101172.81;5048369;28;20041;-73
2022/10/10 09:43:14;;;;;;;15.80;8.10;;;;;;;14.86;76.54;101172.75;5041819;28;20511;-73
2022/10/10 09:45:47;;;;;;;16.40;8.40;;;;;;;14.85;77.01;101175.34;5043093;28;20114;-73
2022/10/10 09:48:15;;;;;;;23.08;9.95;;;;;;;14.82;76.31;101170.06;5042193;28;20049;-73
2022/10/10 09:50:44;;;;;;;18.42;9.13;;;;;;;14.78;76.51;101169.13;5045483;28;20514;-73
2022/10/10 09:53:15;;;;;;;18.80;9.23;;;;;;;14.78;76.95;101171.75;5042192;28;20053;-73
2022/10/10 09:55:47;;;;;;;16.77;9.35;;;;;;;14.76;77.75;101168.22;5046038;28;20050;-72
2022/10/10 09:58:23;;;;;;;16.77;8.73;;;;;;;14.74;77.76;101172.53;5041986;28;20493;-73
2022/10/10 10:00:52;;;;;;;15.65;8.68;;;;;;;14.67;77.48;101160.22;5047954;28;20049;-73
2022/10/10 10:03:22;;;;;;;16.75;8.77;;;;;;;14.71;77.42;101182.88;5047736;28;20048;-73
2022/10/10 10:06:00;;;;;;;14.38;8.60;;;;;;;14.69;76.58;101181.97;5045475;28;20111;-73
2022/10/10 10:08:31;;;;;;;18.80;8.27;;;;;;;14.66;77.38;101184.53;5038594;28;20053;-73
2022/10/10 10:11:02;;;;;;;18.80;8.73;;;;;;;14.58;78.37;101176.56;5040534;28;20045;-72
2022/10/10 10:13:33;;;;;;;21.73;8.10;;;;;;;14.54;78.52;101173.81;5053043;28;20048;-73
2022/10/10 10:16:09;;;;;;;13.82;7.95;;;;;;;14.50;78.85;101172.00;5048897;28;20087;-73
2022/10/10 10:18:42;;;;;;;19.63;8.73;;;;;;;14.44;78.25;101177.97;5051016;28;20045;-73
2022/10/10 10:21:18;;;;;;;15.82;8.00;;;;;;;14.43;78.87;101171.91;5049182;28;20461;-73
2022/10/10 10:23:55;;;;;;;20.58;9.85;;;;;;;14.43;79.58;101176.19;5038753;28;20046;-73
2022/10/10 10:26:28;;;;;;;13.90;7.50;;;;;;;14.43;80.21;101173.59;5032250;28;20041;-73
2022/10/10 10:28:58;;;;;;;19.40;9.23;;;;;;;14.41;79.46;101168.38;5039763;28;20100;-73
2022/10/10 10:31:51;;;;;;;18.08;9.52;;;;;;;14.42;79.77;101175.31;5048507;28;20797;-73
2022/10/10 10:34:39;;;;;;;18.65;8.60;;;;;;;14.38;79.71;101168.28;5044459;28;20839;-73
2022/10/10 10:37:19;;;;;;;18.05;9.32;;;;;;;14.35;78.26;101170.84;5046805;28;20122;-74
2022/10/10 10:40:09;;;;;;;19.10;9.75;;;;;;;14.34;78.78;101176.91;5024255;28;20049;-74
2022/10/10 10:42:56;;;;;;;17.08;9.10;;;;;;;14.32;79.61;101175.13;5025359;28;20049;-74
2022/10/10 10:45:36;;;;;;;19.42;9.90;;;;;;;14.30;79.25;101172.50;5025756;28;20050;-73
2022/10/10 10:48:22;;;;;;;16.85;9.63;;;;;;;14.28;79.61;101171.56;5017672;28;20053;-74
2022/10/10 10:50:56;;;;;;;16.48;8.15;;;;;;;14.27;79.28;101176.72;5019832;28;20891;-73
2022/10/10 10:53:35;;;;;;;20.77;9.82;;;;;;;14.23;79.40;101174.06;5026259;28;20045;-74
2022/10/10 10:56:13;;;;;;;17.40;10.05;;;;;;;14.21;80.04;101170.56;5027671;28;20041;-74
2022/10/10 10:59:23;;;;;;;20.02;10.35;;;;;;;14.18;80.06;101177.44;5025330;28;20790;-73
2022/10/10 11:01:59;;;;;;;17.50;8.75;;;;;;;14.17;79.27;101181.75;5026465;28;20057;-73
2022/10/10 11:04:50;;;;;;;20.35;9.85;;;;;;;14.16;80.33;101173.94;5025850;28;20053;-74
2022/10/10 11:07:21;;;;;;;18.50;9.60;;;;;;;14.15;80.38;101174.75;5026999;28;20103;-73
2022/10/10 11:09:56;;;;;;;20.48;10.35;;;;;;;14.15;80.54;101174.75;5024752;28;20057;-73
2022/10/10 11:12:47;;;;;;;17.83;9.40;;;;;;;14.13;79.92;101177.34;5029975;28;20037;-73
2022/10/10 11:15:22;;;;;;;22.27;9.50;;;;;;;14.10;79.79;101171.19;5020502;28;20046;-73
2022/10/10 11:17:57;;;;;;;19.10;9.55;;;;;;;14.08;79.15;101175.47;5024222;28;20471;-73
2022/10/10 11:20:33;;;;;;;17.25;10.65;;;;;;;14.01;80.43;101172.72;5015432;28;20112;-73
2022/10/10 11:23:06;;;;;;;16.02;8.90;;;;;;;14.00;81.25;101178.78;5016991;28;20058;-74
2022/10/10 11:25:42;;;;;;;20.38;9.00;;;;;;;13.98;82.04;101180.47;5021111;28;20072;-74
2022/10/10 11:28:16;;;;;;;20.50;10.10;;;;;;;13.99;81.66;101184.81;5020402;28;20054;-74
2022/10/10 11:30:51;;;;;;;18.33;10.55;;;;;;;13.98;81.66;101183.06;5021643;28;20439;-74
2022/10/10 11:33:25;;;;;;;22.25;9.68;;;;;;;13.96;80.77;101182.16;5025915;28;20053;-74
2022/10/10 11:35:59;;;;;;;17.77;10.10;;;;;;;13.96;81.80;101189.97;5015005;28;20068;-74